createdAt,value
2019-06-07T00:02:18.625Z,100605.08
2019-06-07T00:04:51.046Z,100614.48
2019-06-07T00:07:22.997Z,100603.73
2019-06-07T00:09:55.108Z,100609.95
2019-06-07T00:12:27.074Z,100597.78
2019-06-07T00:15:00.207Z,100595.95
2019-06-07T00:17:32.166Z,100587.42
2019-06-07T00:20:08.510Z,100590.52
2019-06-07T00:22:39.915Z,100580.16
2019-06-07T00:25:15.887Z,100583.69
2019-06-07T00:27:47.702Z,100585.48
2019-06-07T00:30:50.659Z,100580.56
2019-06-07T00:32:55.539Z,100583.73
2019-06-07T00:35:27.592Z,100591.72
2019-06-07T00:37:59.555Z,100593.02
2019-06-07T00:40:32.382Z,100594.44
2019-06-07T00:43:04.627Z,100600.20
2019-06-07T00:45:36.530Z,100588.11
2019-06-07T00:48:08.464Z,100576.88
2019-06-07T00:50:40.380Z,100574.67
2019-06-07T00:53:17.257Z,100574.19
2019-06-07T00:55:46.043Z,100574.19
2019-06-07T00:58:21.836Z,100578.20
2019-06-07T01:00:51.667Z,100578.66
2019-06-07T01:03:25.813Z,100575.08
2019-06-07T01:05:57.639Z,100579.09
2019-06-07T01:08:30.248Z,100582.22
2019-06-07T01:11:02.729Z,100583.56
2019-06-07T01:13:35.366Z,100588.03
2019-06-07T01:16:07.483Z,100584.90
2019-06-07T01:18:46.193Z,100577.75
2019-06-07T01:21:15.902Z,100579.09
2019-06-07T01:24:08.053Z,100583.52
2019-06-07T01:26:26.416Z,100587.48
2019-06-07T01:28:57.899Z,100583.43
2019-06-07T01:31:31.955Z,100587.00
2019-06-07T01:34:04.443Z,100597.26
2019-06-07T01:36:36.389Z,100599.54
2019-06-07T01:39:08.659Z,100603.52
2019-06-07T01:41:40.835Z,100607.98
2019-06-07T01:44:13.355Z,100618.77
2019-06-07T01:46:45.499Z,100626.95
2019-06-07T01:49:17.387Z,100624.84
2019-06-07T01:51:49.313Z,100616.81
2019-06-07T01:56:55.960Z,100615.47
2019-06-07T01:59:31.028Z,100616.85
2019-06-07T02:02:01.618Z,100620.96
2019-06-07T02:04:33.879Z,100623.27
2019-06-07T02:07:05.992Z,100630.94
2019-06-07T02:09:37.879Z,100635.44
2019-06-07T02:12:25.477Z,100651.13
2019-06-07T02:14:52.142Z,100648.03
2019-06-07T02:17:30.946Z,100648.03
2019-06-07T02:20:02.221Z,100649.41
2019-06-07T02:22:34.251Z,100648.96
2019-06-07T02:27:41.228Z,100648.11
2019-06-07T02:32:47.168Z,100638.28
2019-06-07T02:35:19.250Z,100645.91
2019-06-07T02:37:51.224Z,100643.23
2019-06-07T02:40:24.556Z,100646.36
2019-06-07T02:42:57.217Z,100642.79
2019-06-07T02:45:36.170Z,100646.40
2019-06-07T02:48:04.010Z,100646.44
2019-06-07T02:50:38.703Z,100644.20
2019-06-07T02:53:10.177Z,100650.02
2019-06-07T02:56:33.265Z,100650.98
2019-06-07T02:58:15.694Z,100654.59
2019-06-07T03:01:09.188Z,100660.44
2019-06-07T03:03:24.681Z,100669.41
2019-06-07T03:05:57.862Z,100666.73
2019-06-07T03:08:35.446Z,100673.47
2019-06-07T03:11:06.813Z,100676.56
2019-06-07T03:13:40.996Z,100674.81
2019-06-07T03:16:15.137Z,100676.60
2019-06-07T03:18:55.992Z,100688.70
2019-06-07T03:21:33.754Z,100683.86
2019-06-07T03:24:05.843Z,100692.80
2019-06-07T03:27:30.530Z,100706.21
2019-06-07T03:29:12.338Z,100706.21
2019-06-07T03:31:47.750Z,100708.89
2019-06-07T03:34:17.799Z,100712.06
2019-06-07T03:36:49.762Z,100711.65
2019-06-07T03:39:21.766Z,100712.13
2019-06-07T03:42:05.912Z,100714.87
2019-06-07T03:44:28.568Z,100716.67
2019-06-07T03:47:01.055Z,100723.38
2019-06-07T03:49:38.783Z,100723.00
2019-06-07T03:52:06.722Z,100714.59
2019-06-07T03:54:39.900Z,100716.06
2019-06-07T03:57:11.976Z,100712.94
2019-06-07T03:59:43.882Z,100717.08
2019-06-07T04:02:15.917Z,100707.70
2019-06-07T04:04:47.845Z,100704.70
2019-06-07T04:07:19.684Z,100707.88
2019-06-07T04:09:51.756Z,100711.49
2019-06-07T04:12:23.789Z,100708.83
2019-06-07T04:14:55.723Z,100713.82
2019-06-07T04:17:31.152Z,100712.52
2019-06-07T04:20:01.490Z,100712.97
2019-06-07T04:22:38.831Z,100713.85
2019-06-07T04:25:12.522Z,100711.66
2019-06-07T04:27:44.530Z,100712.90
2019-06-07T04:30:26.599Z,100714.23
2019-06-07T04:32:58.503Z,100717.39
2019-06-07T04:35:31.396Z,100722.41
2019-06-07T04:38:04.395Z,100722.26
2019-06-07T04:40:39.960Z,100720.02
2019-06-07T04:43:11.407Z,100727.65
2019-06-07T04:45:50.808Z,100734.30
2019-06-07T04:48:18.776Z,100727.59
2019-06-07T04:50:52.466Z,100728.57
2019-06-07T04:53:24.610Z,100725.63
2019-06-07T04:55:57.008Z,100719.45
2019-06-07T04:58:30.451Z,100726.59
2019-06-07T05:01:03.850Z,100727.33
2019-06-07T05:03:38.857Z,100735.83
2019-06-07T05:06:09.626Z,100729.58
2019-06-07T05:08:43.588Z,100725.52
2019-06-07T05:11:15.310Z,100722.88
2019-06-07T05:13:47.271Z,100727.91
2019-06-07T05:16:19.256Z,100728.47
2019-06-07T05:18:51.196Z,100740.05
2019-06-07T05:21:23.122Z,100739.09
2019-06-07T05:24:06.394Z,100744.47
2019-06-07T05:26:30.500Z,100739.55
2019-06-07T05:29:02.216Z,100739.07
2019-06-07T05:31:35.785Z,100731.98
2019-06-07T05:34:07.766Z,100727.09
2019-06-07T05:36:44.271Z,100734.80
2019-06-07T05:39:13.452Z,100739.78
2019-06-07T05:41:45.431Z,100734.41
2019-06-07T05:44:17.399Z,100733.97
2019-06-07T05:46:49.468Z,100745.13
2019-06-07T05:49:22.454Z,100749.59
2019-06-07T05:51:54.410Z,100752.20
2019-06-07T05:54:26.326Z,100755.41
2019-06-07T05:56:58.298Z,100759.81
2019-06-07T05:59:30.277Z,100766.13
2019-06-07T06:02:21.216Z,100768.55
2019-06-07T06:04:39.327Z,100767.29
2019-06-07T06:07:11.049Z,100773.16
2019-06-07T06:09:43.821Z,100774.66
2019-06-07T06:12:34.117Z,100776.83
2019-06-07T06:14:52.045Z,100778.98
2019-06-07T06:17:24.336Z,100786.67
2019-06-07T06:19:56.214Z,100790.91
2019-06-07T06:22:28.135Z,100798.13
2019-06-07T06:25:30.751Z,100805.95
2019-06-07T06:30:12.895Z,100816.24
2019-06-07T06:32:52.644Z,100810.22
2019-06-07T06:35:19.545Z,100819.27
2019-06-07T06:37:53.466Z,100820.30
2019-06-07T06:40:26.686Z,100820.16
2019-06-07T06:42:58.677Z,100816.69
2019-06-07T06:45:30.605Z,100825.17
2019-06-07T06:48:02.610Z,100830.99
2019-06-07T06:50:34.648Z,100828.67
2019-06-07T06:53:52.599Z,100828.64
2019-06-07T06:56:25.670Z,100840.59
2019-06-07T06:59:35.186Z,100847.91
2019-06-07T07:01:31.677Z,100841.78
2019-06-07T07:04:11.982Z,100851.88
2019-06-07T07:06:38.337Z,100846.14
2019-06-07T07:09:10.276Z,100850.80
2019-06-07T07:11:55.235Z,100855.20
2019-06-07T07:14:16.082Z,100862.80
2019-06-07T07:16:53.557Z,100861.27
2019-06-07T07:19:21.660Z,100862.16
2019-06-07T07:21:55.321Z,100864.84
2019-06-07T07:24:28.190Z,100867.57
2019-06-07T07:27:00.199Z,100873.73
2019-06-07T07:29:32.391Z,100880.63
2019-06-07T07:32:04.463Z,100883.02
2019-06-07T07:34:37.566Z,100885.70
2019-06-07T07:37:09.753Z,100892.72
2019-06-07T07:39:41.667Z,100890.66
2019-06-07T07:42:20.889Z,100895.26
2019-06-07T07:44:49.887Z,100891.28
2019-06-07T07:47:21.049Z,100884.67
2019-06-07T07:49:56.388Z,100879.80
2019-06-07T07:52:26.636Z,100881.52
2019-06-07T07:54:58.652Z,100882.41
2019-06-07T07:57:30.538Z,100889.86
2019-06-07T08:00:36.881Z,100884.06
2019-06-07T08:02:36.129Z,100876.84
2019-06-07T08:05:25.251Z,100876.75
2019-06-07T08:07:42.194Z,100880.40
2019-06-07T08:10:14.573Z,100869.20
2019-06-07T08:13:08.915Z,100875.36
2019-06-07T08:15:20.532Z,100866.92
2019-06-07T08:17:58.041Z,100870.63
2019-06-07T08:20:26.162Z,100871.49
2019-06-07T08:23:01.134Z,100865.66
2019-06-07T08:25:32.825Z,100865.14
2019-06-07T08:28:05.780Z,100866.98
2019-06-07T08:30:58.353Z,100875.98
2019-06-07T08:33:25.305Z,100869.19
2019-06-07T08:36:06.035Z,100882.16
2019-06-07T08:38:27.296Z,100872.84
2019-06-07T08:40:56.726Z,100873.78
2019-06-07T08:43:25.857Z,100857.09
2019-06-07T08:46:02.277Z,100871.53
2019-06-07T08:48:31.486Z,100873.75
2019-06-07T08:51:08.057Z,100871.52
2019-06-07T08:53:37.091Z,100879.53
2019-06-07T08:56:10.930Z,100888.91
2019-06-07T08:58:42.543Z,100884.92
2019-06-07T09:01:14.528Z,100877.80
2019-06-07T09:03:46.480Z,100886.73
2019-06-07T09:07:01.227Z,100890.81
2019-06-07T09:08:53.337Z,100889.46
2019-06-07T09:11:25.871Z,100893.97
2019-06-07T09:14:02.157Z,100895.77
2019-06-07T09:16:31.616Z,100903.83
2019-06-07T09:19:10.312Z,100899.75
2019-06-07T09:21:38.565Z,100895.26
2019-06-07T09:24:11.965Z,100890.84
2019-06-07T09:26:44.316Z,100885.39
2019-06-07T09:29:16.738Z,100884.94
2019-06-07T09:31:53.138Z,100888.63
2019-06-07T09:34:22.385Z,100883.36
2019-06-07T09:36:57.531Z,100879.86
2019-06-07T09:39:28.435Z,100878.41
2019-06-07T09:42:01.643Z,100874.23
2019-06-07T09:44:34.114Z,100875.95
2019-06-07T09:47:22.194Z,100876.46
2019-06-07T09:49:39.803Z,100882.70
2019-06-07T09:52:11.682Z,100886.38
2019-06-07T09:55:06.240Z,100890.48
2019-06-07T09:57:18.011Z,100896.66
2019-06-07T09:59:50.820Z,100892.48
2019-06-07T10:02:22.848Z,100894.15
2019-06-07T10:04:54.731Z,100894.30
2019-06-07T10:07:31.687Z,100903.54
2019-06-07T10:12:34.867Z,100914.45
2019-06-07T10:15:08.939Z,100901.58
2019-06-07T10:17:41.133Z,100904.77
2019-06-07T10:20:13.243Z,100896.36
2019-06-07T10:22:45.150Z,100903.52
2019-06-07T10:25:17.059Z,100903.85
2019-06-07T10:27:49.043Z,100897.63
2019-06-07T10:30:22.508Z,100894.06
2019-06-07T10:32:54.433Z,100900.61
2019-06-07T10:35:26.604Z,100901.05
2019-06-07T10:37:58.714Z,100908.25
2019-06-07T10:40:30.662Z,100902.33
2019-06-07T10:43:03.046Z,100898.43
2019-06-07T10:45:35.085Z,100900.55
2019-06-07T10:48:07.651Z,100900.59
2019-06-07T10:50:39.608Z,100896.36
2019-06-07T10:53:12.539Z,100890.89
2019-06-07T10:55:45.825Z,100892.58
2019-06-07T10:58:17.809Z,100892.77
2019-06-07T11:00:49.756Z,100890.55
2019-06-07T11:03:21.689Z,100883.34
2019-06-07T11:05:53.723Z,100883.14
2019-06-07T11:08:25.663Z,100880.89
2019-06-07T11:10:57.708Z,100882.73
2019-06-07T11:13:29.757Z,100875.00
2019-06-07T11:16:01.712Z,100884.67
2019-06-07T11:18:33.810Z,100887.56
2019-06-07T11:21:08.426Z,100887.38
2019-06-07T11:23:40.714Z,100881.86
2019-06-07T11:26:12.606Z,100876.61
2019-06-07T11:28:44.578Z,100875.84
2019-06-07T11:31:16.541Z,100873.09
2019-06-07T11:33:48.537Z,100867.97
2019-06-07T11:36:21.753Z,100869.45
2019-06-07T11:38:53.840Z,100863.99
2019-06-07T11:41:26.075Z,100863.74
2019-06-07T11:43:58.093Z,100861.84
2019-06-07T11:46:30.264Z,100865.34
2019-06-07T11:49:02.277Z,100860.89
2019-06-07T11:51:34.279Z,100855.81
2019-06-07T11:54:07.789Z,100855.58
2019-06-07T11:56:39.881Z,100856.12
2019-06-07T11:59:13.141Z,100859.25
2019-06-07T12:01:45.442Z,100855.98
2019-06-07T12:04:32.389Z,100855.77
2019-06-07T12:06:51.099Z,100864.95
2019-06-07T12:09:23.109Z,100860.13
2019-06-07T12:11:54.967Z,100865.39
2019-06-07T12:14:26.867Z,100859.55
2019-06-07T12:16:58.759Z,100860.07
2019-06-07T12:19:30.949Z,100853.00
2019-06-07T12:22:02.840Z,100855.58
2019-06-07T12:24:34.743Z,100855.51
2019-06-07T12:27:06.715Z,100855.62
2019-06-07T12:29:38.539Z,100851.28
2019-06-07T12:32:11.237Z,100853.93
2019-06-07T12:34:43.301Z,100847.42
2019-06-07T12:37:18.939Z,100840.94
2019-06-07T12:39:48.970Z,100837.80
2019-06-07T12:42:21.078Z,100840.07
2019-06-07T12:44:53.013Z,100841.09
2019-06-07T12:47:25.069Z,100840.47
2019-06-07T12:49:57.020Z,100836.92
2019-06-07T12:52:28.975Z,100839.08
2019-06-07T12:55:01.151Z,100832.78
2019-06-07T12:57:33.009Z,100837.13
2019-06-07T13:00:13.946Z,100842.68
2019-06-07T13:02:47.031Z,100837.03
2019-06-07T13:05:19.969Z,100838.57
2019-06-07T13:07:52.120Z,100835.58
2019-06-07T13:10:24.199Z,100837.46
2019-06-07T13:12:56.241Z,100833.56
2019-06-07T13:15:28.382Z,100833.27
2019-06-07T13:18:00.591Z,100828.72
2019-06-07T13:20:32.634Z,100830.59
2019-06-07T13:23:04.705Z,100827.65
2019-06-07T13:25:46.363Z,100821.68
2019-06-07T13:28:10.466Z,100813.61
2019-06-07T13:30:42.383Z,100808.02
2019-06-07T13:33:14.327Z,100806.58
2019-06-07T13:35:46.969Z,100798.64
2019-06-07T13:38:26.698Z,100803.48
2019-06-07T13:41:04.642Z,100813.83
2019-06-07T13:43:36.469Z,100807.97
2019-06-07T13:46:12.679Z,100807.21
2019-06-07T13:48:42.108Z,100800.93
2019-06-07T13:51:14.042Z,100804.73
2019-06-07T13:53:45.851Z,100797.97
2019-06-07T13:56:17.834Z,100800.14
2019-06-07T13:58:49.798Z,100800.48
2019-06-07T14:01:22.460Z,100800.97
2019-06-07T14:03:54.785Z,100804.59
2019-06-07T14:06:28.156Z,100799.50
2019-06-07T14:09:00.512Z,100799.22
2019-06-07T14:11:49.510Z,100798.60
2019-06-07T14:14:07.892Z,100801.05
2019-06-07T14:16:39.968Z,100802.81
2019-06-07T14:19:11.830Z,100796.28
2019-06-07T14:21:44.630Z,100798.70
2019-06-07T14:24:16.450Z,100802.53
2019-06-07T14:27:06.609Z,100795.08
2019-06-07T14:29:39.537Z,100783.41
2019-06-07T14:32:11.510Z,100789.45
2019-06-07T14:34:43.459Z,100785.91
2019-06-07T14:37:15.438Z,100792.13
2019-06-07T14:39:47.409Z,100798.20
2019-06-07T14:42:19.353Z,100794.90
2019-06-07T14:44:51.209Z,100800.51
2019-06-07T14:47:40.020Z,100801.30
2019-06-07T14:50:12.897Z,100801.16
2019-06-07T14:52:44.802Z,100800.88
2019-06-07T14:55:16.890Z,100793.36
2019-06-07T14:57:49.055Z,100796.64
2019-06-07T15:00:22.769Z,100789.03
2019-06-07T15:02:54.675Z,100801.10
2019-06-07T15:05:31.339Z,100796.37
2019-06-07T15:08:05.249Z,100794.31
2019-06-07T15:10:37.225Z,100795.94
2019-06-07T15:13:09.269Z,100796.33
2019-06-07T15:15:41.604Z,100796.64
2019-06-07T15:18:13.527Z,100793.45
2019-06-07T15:20:45.401Z,100799.97
2019-06-07T15:23:17.325Z,100794.32
2019-06-07T15:25:49.145Z,100801.63
2019-06-07T15:28:21.520Z,100796.74
2019-06-07T15:30:53.383Z,100799.28
2019-06-07T15:33:27.773Z,100801.19
2019-06-07T15:35:59.748Z,100794.20
2019-06-07T15:38:33.090Z,100797.88
2019-06-07T15:41:05.186Z,100791.77
2019-06-07T15:43:37.519Z,100801.14
2019-06-07T15:46:09.550Z,100797.13
2019-06-07T15:48:41.541Z,100797.27
2019-06-07T15:51:13.398Z,100797.88
2019-06-07T15:53:45.310Z,100798.05
2019-06-07T15:56:17.185Z,100793.05
2019-06-07T15:58:49.182Z,100791.44
2019-06-07T16:01:21.055Z,100799.14
2019-06-07T16:03:53.138Z,100801.06
2019-06-07T16:06:25.183Z,100799.80
2019-06-07T16:08:57.250Z,100795.73
2019-06-07T16:11:29.285Z,100800.41
2019-06-07T16:14:01.497Z,100790.52
2019-06-07T16:16:35.045Z,100798.95
2019-06-07T16:19:07.327Z,100799.69
2019-06-07T16:21:39.541Z,100794.54
2019-06-07T16:24:11.548Z,100794.42
2019-06-07T16:26:44.563Z,100795.25
2019-06-07T16:29:16.759Z,100795.00
2019-06-07T16:31:48.722Z,100786.56
2019-06-07T16:34:20.724Z,100783.00
2019-06-07T16:36:52.686Z,100784.67
2019-06-07T16:39:24.669Z,100783.59
2019-06-07T16:41:56.860Z,100787.20
2019-06-07T16:44:30.462Z,100779.97
2019-06-07T16:47:02.579Z,100773.98
2019-06-07T16:49:34.711Z,100775.81
2019-06-07T16:52:06.683Z,100773.56
2019-06-07T16:54:39.331Z,100770.99
2019-06-07T16:57:11.273Z,100780.95
2019-06-07T16:59:49.075Z,100773.18
2019-06-07T17:02:20.014Z,100770.46
2019-06-07T17:04:52.012Z,100756.45
2019-06-07T17:07:23.829Z,100763.52
2019-06-07T17:09:55.801Z,100756.02
2019-06-07T17:12:27.765Z,100755.62
2019-06-07T17:14:59.734Z,100755.36
2019-06-07T17:17:31.604Z,100753.58
2019-06-07T17:20:04.807Z,100754.61
2019-06-07T17:22:37.300Z,100753.78
2019-06-07T17:25:11.678Z,100752.05
2019-06-07T17:27:43.977Z,100749.00
2019-06-07T17:30:16.889Z,100746.41
2019-06-07T17:32:58.501Z,100742.25
2019-06-07T17:35:22.667Z,100742.02
2019-06-07T17:37:54.706Z,100746.59
2019-06-07T17:40:26.754Z,100743.60
2019-06-07T17:42:58.755Z,100745.48
2019-06-07T17:45:31.021Z,100740.59
2019-06-07T17:48:03.104Z,100745.09
2019-06-07T17:50:35.294Z,100750.70
2019-06-07T17:53:07.943Z,100746.94
2019-06-07T17:55:41.959Z,100750.59
2019-06-07T17:58:13.983Z,100755.52
2019-06-07T18:00:58.789Z,100757.50
2019-06-07T18:03:30.760Z,100762.34
2019-06-07T18:06:04.516Z,100758.90
2019-06-07T18:08:36.803Z,100763.85
2019-06-07T18:11:08.800Z,100767.34
2019-06-07T18:13:41.177Z,100769.05
2019-06-07T18:16:13.306Z,100768.97
2019-06-07T18:18:46.875Z,100768.59
2019-06-07T18:21:19.692Z,100779.53
2019-06-07T18:23:52.998Z,100777.59
2019-06-07T18:26:25.418Z,100780.13
2019-06-07T18:28:59.296Z,100786.66
2019-06-07T18:31:32.048Z,100790.41
2019-06-07T18:34:03.932Z,100788.84
2019-06-07T18:36:37.517Z,100789.57
2019-06-07T18:39:09.989Z,100792.34
2019-06-07T18:41:43.488Z,100787.94
2019-06-07T18:44:21.544Z,100788.55
2019-06-07T18:46:50.136Z,100784.14
2019-06-07T18:49:22.251Z,100781.95
2019-06-07T18:52:15.265Z,100777.16
2019-06-07T18:54:48.722Z,100781.79
2019-06-07T18:57:20.968Z,100785.56
2019-06-07T18:59:52.863Z,100780.79
2019-06-07T19:02:25.874Z,100788.50
2019-06-07T19:04:59.823Z,100796.22
2019-06-07T19:07:31.693Z,100790.00
2019-06-07T19:10:11.344Z,100796.78
2019-06-07T19:12:44.678Z,100798.61
2019-06-07T19:15:19.514Z,100799.55
2019-06-07T19:17:52.164Z,100804.97
2019-06-07T19:20:24.404Z,100808.59
2019-06-07T19:22:56.574Z,100817.16
2019-06-07T19:25:28.563Z,100814.48
2019-06-07T19:28:01.097Z,100823.43
2019-06-07T19:30:33.234Z,100827.92
2019-06-07T19:33:48.458Z,100831.03
2019-06-07T19:36:08.688Z,100833.72
2019-06-07T19:38:40.803Z,100838.62
2019-06-07T19:41:19.648Z,100844.00
2019-06-07T19:43:48.153Z,100843.55
2019-06-07T19:46:20.087Z,100845.31
2019-06-07T19:48:52.506Z,100855.16
2019-06-07T19:51:24.527Z,100860.45
2019-06-07T19:53:57.106Z,100855.03
2019-06-07T19:56:29.112Z,100854.57
2019-06-07T19:59:01.815Z,100847.77
2019-06-07T20:01:34.287Z,100845.49
2019-06-07T20:04:06.269Z,100848.50
2019-06-07T20:06:38.330Z,100840.84
2019-06-07T20:09:10.356Z,100848.02
2019-06-07T20:11:42.397Z,100843.45
2019-06-07T20:14:14.532Z,100842.47
2019-06-07T20:16:46.423Z,100843.73
2019-06-07T20:19:18.625Z,100835.62
2019-06-07T20:21:50.605Z,100836.94
2019-06-07T20:24:27.409Z,100843.56
2019-06-07T20:26:56.238Z,100841.70
2019-06-07T20:29:30.129Z,100844.75
2019-06-07T20:32:02.514Z,100845.26
2019-06-07T20:34:34.629Z,100844.78
2019-06-07T20:37:07.729Z,100849.22
2019-06-07T20:39:40.295Z,100846.47
2019-06-07T20:42:12.223Z,100844.61
2019-06-07T20:47:52.154Z,100841.78
2019-06-07T20:50:24.052Z,100840.36
2019-06-07T20:52:55.956Z,100842.94
2019-06-07T20:55:27.862Z,100843.87
2019-06-07T20:58:01.185Z,100843.30
2019-06-07T21:00:33.315Z,100840.09
2019-06-07T21:03:07.246Z,100834.69
2019-06-07T21:05:39.394Z,100843.55
2019-06-07T21:08:12.875Z,100841.75
2019-06-07T21:10:45.198Z,100838.13
2019-06-07T21:13:17.171Z,100832.69
2019-06-07T21:15:49.494Z,100824.55
2019-06-07T21:18:21.673Z,100824.19
2019-06-07T21:20:53.763Z,100828.17
2019-06-07T21:23:25.653Z,100819.63
2019-06-07T21:25:58.744Z,100821.38
2019-06-07T21:28:30.798Z,100819.50
2019-06-07T21:31:03.786Z,100818.16
2019-06-07T21:33:36.361Z,100821.19
2019-06-07T21:36:09.706Z,100813.09
2019-06-07T21:38:41.694Z,100810.33
2019-06-07T21:41:13.669Z,100806.66
2019-06-07T21:43:45.653Z,100808.39
2019-06-07T21:46:20.441Z,100802.58
2019-06-07T21:48:51.524Z,100806.21
2019-06-07T21:51:23.564Z,100806.66
2019-06-07T21:53:57.108Z,100806.70
2019-06-07T21:56:29.165Z,100807.14
2019-06-07T21:59:01.129Z,100801.30
2019-06-07T22:01:33.774Z,100800.41
2019-06-07T22:04:07.339Z,100799.05
2019-06-07T22:06:39.606Z,100794.55
2019-06-07T22:09:12.372Z,100794.55
2019-06-07T22:11:44.447Z,100785.61
2019-06-07T22:14:16.339Z,100786.41
2019-06-07T22:16:48.268Z,100797.45
2019-06-07T22:19:20.096Z,100794.20
2019-06-07T22:22:02.234Z,100790.63
2019-06-07T22:24:25.803Z,100788.90
2019-06-07T22:26:57.705Z,100787.56
2019-06-07T22:29:29.630Z,100791.14
2019-06-07T22:32:01.675Z,100791.59
2019-06-07T22:34:33.657Z,100785.67
2019-06-07T22:37:07.049Z,100788.25
2019-06-07T22:39:39.257Z,100791.77
2019-06-07T22:42:13.507Z,100789.87
2019-06-07T22:44:45.539Z,100798.20
2019-06-07T22:47:18.319Z,100787.37
2019-06-07T22:49:50.466Z,100781.06
2019-06-07T22:52:22.501Z,100792.16
2019-06-07T22:54:54.469Z,100788.86
2019-06-07T22:57:29.198Z,100789.70
2019-06-07T23:00:08.590Z,100786.83
2019-06-07T23:02:35.146Z,100784.11
2019-06-07T23:05:08.430Z,100778.24
2019-06-07T23:07:40.604Z,100776.02
2019-06-07T23:10:13.390Z,100778.30
2019-06-07T23:12:45.469Z,100777.08
2019-06-07T23:15:18.142Z,100778.86
2019-06-07T23:17:51.366Z,100777.58
2019-06-07T23:20:23.507Z,100775.81
2019-06-07T23:23:01.791Z,100775.31
2019-06-07T23:25:33.699Z,100773.46
2019-06-07T23:28:05.828Z,100770.77
2019-06-07T23:30:37.935Z,100766.31
2019-06-07T23:33:14.824Z,100775.11
2019-06-07T23:35:58.829Z,100780.41
2019-06-07T23:38:30.881Z,100776.77
2019-06-07T23:41:17.634Z,100778.61
2019-06-07T23:43:55.761Z,100776.00
2019-06-07T23:47:10.890Z,100779.05
2019-06-07T23:49:36.840Z,100782.05
2019-06-07T23:52:11.329Z,100785.84
2019-06-07T23:54:44.904Z,100795.22
2019-06-07T23:57:18.866Z,100796.48
2019-06-07T23:59:50.704Z,100797.77
